sensor_id;sensor_type;location;lat;lon;timestamp;P1;durP1;ratioP1;P2;durP2;ratioP2
74551;SDS011;63025;55.472;38.432;2022-08-21T00:00:07;89.25;;;52.90;;
74551;SDS011;63025;55.472;38.432;2022-08-21T00:02:43;91.22;;;52.90;;
74551;SDS011;63025;55.472;38.432;2022-08-21T00:05:14;86.95;;;51.78;;
74551;SDS011;63025;55.472;38.432;2022-08-21T00:07:40;91.10;;;53.78;;
74551;SDS011;63025;55.472;38.432;2022-08-21T00:10:06;86.95;;;53.78;;
74551;SDS011;63025;55.472;38.432;2022-08-21T00:12:32;84.47;;;52.55;;
74551;SDS011;63025;55.472;38.432;2022-08-21T00:14:58;84.93;;;51.50;;
74551;SDS011;63025;55.472;38.432;2022-08-21T00:17:24;85.97;;;51.38;;
74551;SDS011;63025;55.472;38.432;2022-08-21T00:19:50;79.22;;;49.83;;
74551;SDS011;63025;55.472;38.432;2022-08-21T00:22:16;87.43;;;49.72;;
74551;SDS011;63025;55.472;38.432;2022-08-21T00:24:42;84.47;;;48.53;;
74551;SDS011;63025;55.472;38.432;2022-08-21T00:27:08;77.35;;;49.42;;
74551;SDS011;63025;55.472;38.432;2022-08-21T00:29:33;78.30;;;49.45;;
74551;SDS011;63025;55.472;38.432;2022-08-21T00:31:59;82.28;;;49.95;;
74551;SDS011;63025;55.472;38.432;2022-08-21T00:34:25;80.50;;;48.70;;
74551;SDS011;63025;55.472;38.432;2022-08-21T00:36:50;74.50;;;48.50;;
74551;SDS011;63025;55.472;38.432;2022-08-21T00:39:16;83.53;;;48.92;;
74551;SDS011;63025;55.472;38.432;2022-08-21T00:41:42;81.07;;;49.70;;
74551;SDS011;63025;55.472;38.432;2022-08-21T00:44:09;75.95;;;48.30;;
74551;SDS011;63025;55.472;38.432;2022-08-21T00:46:38;82.20;;;49.40;;
74551;SDS011;63025;55.472;38.432;2022-08-21T00:49:05;78.18;;;49.22;;
74551;SDS011;63025;55.472;38.432;2022-08-21T00:51:35;83.47;;;49.33;;
74551;SDS011;63025;55.472;38.432;2022-08-21T00:54:05;74.50;;;46.67;;
74551;SDS011;63025;55.472;38.432;2022-08-21T00:56:32;80.95;;;48.60;;
74551;SDS011;63025;55.472;38.432;2022-08-21T00:58:58;79.80;;;45.80;;
74551;SDS011;63025;55.472;38.432;2022-08-21T01:01:25;79.72;;;49.00;;
74551;SDS011;63025;55.472;38.432;2022-08-21T01:03:51;81.65;;;48.60;;
74551;SDS011;63025;55.472;38.432;2022-08-21T01:06:17;87.00;;;50.63;;
74551;SDS011;63025;55.472;38.432;2022-08-21T01:08:43;78.88;;;48.40;;
74551;SDS011;63025;55.472;38.432;2022-08-21T01:11:10;81.80;;;49.67;;
74551;SDS011;63025;55.472;38.432;2022-08-21T01:13:36;80.20;;;49.15;;
74551;SDS011;63025;55.472;38.432;2022-08-21T01:16:04;80.78;;;50.13;;
74551;SDS011;63025;55.472;38.432;2022-08-21T01:18:34;85.78;;;50.38;;
74551;SDS011;63025;55.472;38.432;2022-08-21T01:23:31;85.30;;;49.67;;
74551;SDS011;63025;55.472;38.432;2022-08-21T01:25:57;78.30;;;48.53;;
74551;SDS011;63025;55.472;38.432;2022-08-21T01:28:23;78.00;;;49.28;;
74551;SDS011;63025;55.472;38.432;2022-08-21T01:30:50;79.90;;;49.72;;
74551;SDS011;63025;55.472;38.432;2022-08-21T01:33:18;86.38;;;50.85;;
74551;SDS011;63025;55.472;38.432;2022-08-21T01:35:46;83.60;;;51.30;;
74551;SDS011;63025;55.472;38.432;2022-08-21T01:38:12;88.32;;;52.03;;
74551;SDS011;63025;55.472;38.432;2022-08-21T01:40:38;84.80;;;52.00;;
74551;SDS011;63025;55.472;38.432;2022-08-21T01:43:04;81.32;;;50.50;;
74551;SDS011;63025;55.472;38.432;2022-08-21T01:45:30;86.20;;;50.35;;
74551;SDS011;63025;55.472;38.432;2022-08-21T01:47:56;84.70;;;50.75;;
74551;SDS011;63025;55.472;38.432;2022-08-21T01:50:22;82.70;;;50.63;;
74551;SDS011;63025;55.472;38.432;2022-08-21T01:52:48;85.78;;;51.55;;
74551;SDS011;63025;55.472;38.432;2022-08-21T01:55:16;88.00;;;50.40;;
74551;SDS011;63025;55.472;38.432;2022-08-21T01:57:43;86.07;;;52.30;;
74551;SDS011;63025;55.472;38.432;2022-08-21T02:00:11;80.45;;;50.80;;
74551;SDS011;63025;55.472;38.432;2022-08-21T02:02:38;86.57;;;52.83;;
74551;SDS011;63025;55.472;38.432;2022-08-21T02:05:04;85.32;;;52.83;;
74551;SDS011;63025;55.472;38.432;2022-08-21T02:07:42;86.93;;;52.78;;
74551;SDS011;63025;55.472;38.432;2022-08-21T02:10:11;87.32;;;52.65;;
74551;SDS011;63025;55.472;38.432;2022-08-21T02:12:39;87.10;;;53.08;;
74551;SDS011;63025;55.472;38.432;2022-08-21T02:15:25;89.32;;;54.53;;
74551;SDS011;63025;55.472;38.432;2022-08-21T02:17:52;88.00;;;53.97;;
74551;SDS011;63025;55.472;38.432;2022-08-21T02:20:22;90.65;;;55.50;;
74551;SDS011;63025;55.472;38.432;2022-08-21T02:22:51;88.07;;;55.28;;
74551;SDS011;63025;55.472;38.432;2022-08-21T02:25:17;86.43;;;56.42;;
74551;SDS011;63025;55.472;38.432;2022-08-21T02:27:45;87.95;;;55.75;;
74551;SDS011;63025;55.472;38.432;2022-08-21T02:30:46;97.65;;;58.25;;
74551;SDS011;63025;55.472;38.432;2022-08-21T02:33:07;89.43;;;56.30;;
74551;SDS011;63025;55.472;38.432;2022-08-21T02:35:34;92.60;;;58.10;;
74551;SDS011;63025;55.472;38.432;2022-08-21T02:38:03;103.72;;;60.55;;
74551;SDS011;63025;55.472;38.432;2022-08-21T02:40:33;94.68;;;56.47;;
74551;SDS011;63025;55.472;38.432;2022-08-21T02:43:03;100.30;;;59.97;;
74551;SDS011;63025;55.472;38.432;2022-08-21T02:45:30;102.15;;;61.63;;
74551;SDS011;63025;55.472;38.432;2022-08-21T02:48:00;99.65;;;60.00;;
74551;SDS011;63025;55.472;38.432;2022-08-21T02:50:30;100.55;;;59.58;;
74551;SDS011;63025;55.472;38.432;2022-08-21T02:52:58;96.18;;;61.47;;
74551;SDS011;63025;55.472;38.432;2022-08-21T02:55:25;103.40;;;61.92;;
74551;SDS011;63025;55.472;38.432;2022-08-21T02:57:54;101.75;;;62.72;;
74551;SDS011;63025;55.472;38.432;2022-08-21T03:00:22;98.55;;;63.30;;
74551;SDS011;63025;55.472;38.432;2022-08-21T03:02:50;112.65;;;64.90;;
74551;SDS011;63025;55.472;38.432;2022-08-21T03:05:16;105.20;;;64.55;;
74551;SDS011;63025;55.472;38.432;2022-08-21T03:07:43;108.97;;;66.32;;
74551;SDS011;63025;55.472;38.432;2022-08-21T03:10:11;110.03;;;65.60;;
74551;SDS011;63025;55.472;38.432;2022-08-21T03:12:37;108.05;;;65.15;;
74551;SDS011;63025;55.472;38.432;2022-08-21T03:15:04;107.80;;;67.30;;
74551;SDS011;63025;55.472;38.432;2022-08-21T03:17:31;109.22;;;66.95;;
74551;SDS011;63025;55.472;38.432;2022-08-21T03:19:58;108.35;;;67.35;;
74551;SDS011;63025;55.472;38.432;2022-08-21T03:22:24;109.45;;;67.22;;
74551;SDS011;63025;55.472;38.432;2022-08-21T03:24:51;106.03;;;65.28;;
74551;SDS011;63025;55.472;38.432;2022-08-21T03:27:17;112.40;;;65.45;;
74551;SDS011;63025;55.472;38.432;2022-08-21T03:29:43;111.07;;;67.82;;
74551;SDS011;63025;55.472;38.432;2022-08-21T03:32:09;114.65;;;69.03;;
74551;SDS011;63025;55.472;38.432;2022-08-21T03:34:38;109.47;;;67.85;;
74551;SDS011;63025;55.472;38.432;2022-08-21T03:37:05;114.20;;;69.47;;
74551;SDS011;63025;55.472;38.432;2022-08-21T03:39:32;110.07;;;66.68;;
74551;SDS011;63025;55.472;38.432;2022-08-21T03:41:59;108.45;;;67.78;;
74551;SDS011;63025;55.472;38.432;2022-08-21T03:44:25;114.72;;;70.57;;
74551;SDS011;63025;55.472;38.432;2022-08-21T03:46:53;120.47;;;70.85;;
74551;SDS011;63025;55.472;38.432;2022-08-21T03:49:19;107.53;;;69.10;;
74551;SDS011;63025;55.472;38.432;2022-08-21T03:51:45;118.57;;;69.82;;
74551;SDS011;63025;55.472;38.432;2022-08-21T03:54:10;109.30;;;68.03;;
74551;SDS011;63025;55.472;38.432;2022-08-21T03:56:36;108.32;;;67.93;;
74551;SDS011;63025;55.472;38.432;2022-08-21T03:59:02;112.53;;;68.85;;
74551;SDS011;63025;55.472;38.432;2022-08-21T04:01:28;113.22;;;69.78;;
74551;SDS011;63025;55.472;38.432;2022-08-21T04:03:54;114.07;;;72.57;;
74551;SDS011;63025;55.472;38.432;2022-08-21T04:06:20;113.82;;;72.13;;
74551;SDS011;63025;55.472;38.432;2022-08-21T04:08:46;115.53;;;71.10;;
74551;SDS011;63025;55.472;38.432;2022-08-21T04:11:12;114.57;;;72.18;;
74551;SDS011;63025;55.472;38.432;2022-08-21T04:13:38;108.47;;;69.75;;
74551;SDS011;63025;55.472;38.432;2022-08-21T04:16:04;119.40;;;72.82;;
74551;SDS011;63025;55.472;38.432;2022-08-21T04:18:30;126.97;;;71.35;;
74551;SDS011;63025;55.472;38.432;2022-08-21T04:20:56;116.47;;;70.53;;
74551;SDS011;63025;55.472;38.432;2022-08-21T04:23:24;107.13;;;69.03;;
74551;SDS011;63025;55.472;38.432;2022-08-21T04:25:51;109.63;;;69.90;;
74551;SDS011;63025;55.472;38.432;2022-08-21T04:28:18;110.28;;;71.07;;
74551;SDS011;63025;55.472;38.432;2022-08-21T04:30:44;119.28;;;70.88;;
74551;SDS011;63025;55.472;38.432;2022-08-21T04:33:10;115.60;;;70.55;;
74551;SDS011;63025;55.472;38.432;2022-08-21T04:35:36;105.15;;;66.00;;
74551;SDS011;63025;55.472;38.432;2022-08-21T04:38:01;112.43;;;67.97;;
74551;SDS011;63025;55.472;38.432;2022-08-21T04:40:27;111.25;;;68.25;;
74551;SDS011;63025;55.472;38.432;2022-08-21T04:42:55;106.32;;;68.13;;
74551;SDS011;63025;55.472;38.432;2022-08-21T04:45:32;104.68;;;67.03;;
74551;SDS011;63025;55.472;38.432;2022-08-21T04:48:04;107.10;;;67.00;;
74551;SDS011;63025;55.472;38.432;2022-08-21T04:50:36;111.65;;;69.50;;
74551;SDS011;63025;55.472;38.432;2022-08-21T04:53:07;107.95;;;66.80;;
74551;SDS011;63025;55.472;38.432;2022-08-21T04:55:37;106.47;;;66.10;;
74551;SDS011;63025;55.472;38.432;2022-08-21T04:58:05;110.00;;;66.53;;
74551;SDS011;63025;55.472;38.432;2022-08-21T05:00:35;106.95;;;66.32;;
74551;SDS011;63025;55.472;38.432;2022-08-21T05:03:01;103.10;;;66.35;;
74551;SDS011;63025;55.472;38.432;2022-08-21T05:05:30;103.75;;;65.85;;
74551;SDS011;63025;55.472;38.432;2022-08-21T05:07:57;109.38;;;67.45;;
74551;SDS011;63025;55.472;38.432;2022-08-21T05:10:26;106.57;;;66.07;;
74551;SDS011;63025;55.472;38.432;2022-08-21T05:12:52;106.07;;;65.68;;
74551;SDS011;63025;55.472;38.432;2022-08-21T05:15:19;107.50;;;67.88;;
74551;SDS011;63025;55.472;38.432;2022-08-21T05:17:45;106.15;;;66.65;;
74551;SDS011;63025;55.472;38.432;2022-08-21T05:20:12;106.53;;;66.65;;
74551;SDS011;63025;55.472;38.432;2022-08-21T05:22:39;101.13;;;65.60;;
74551;SDS011;63025;55.472;38.432;2022-08-21T05:25:06;104.97;;;64.90;;
74551;SDS011;63025;55.472;38.432;2022-08-21T05:27:33;102.70;;;65.70;;
74551;SDS011;63025;55.472;38.432;2022-08-21T05:29:59;104.13;;;66.60;;
74551;SDS011;63025;55.472;38.432;2022-08-21T05:32:24;94.13;;;62.25;;
74551;SDS011;63025;55.472;38.432;2022-08-21T05:34:50;101.25;;;64.35;;
74551;SDS011;63025;55.472;38.432;2022-08-21T05:37:16;102.68;;;63.70;;
74551;SDS011;63025;55.472;38.432;2022-08-21T05:39:42;98.35;;;64.03;;
74551;SDS011;63025;55.472;38.432;2022-08-21T05:42:08;98.55;;;63.25;;
74551;SDS011;63025;55.472;38.432;2022-08-21T05:44:34;99.93;;;61.33;;
74551;SDS011;63025;55.472;38.432;2022-08-21T05:47:03;99.90;;;62.90;;
74551;SDS011;63025;55.472;38.432;2022-08-21T05:49:33;94.07;;;62.13;;
74551;SDS011;63025;55.472;38.432;2022-08-21T05:52:00;97.35;;;61.53;;
74551;SDS011;63025;55.472;38.432;2022-08-21T05:54:26;97.88;;;62.65;;
74551;SDS011;63025;55.472;38.432;2022-08-21T05:56:52;98.50;;;60.65;;
74551;SDS011;63025;55.472;38.432;2022-08-21T05:59:19;94.10;;;58.67;;
74551;SDS011;63025;55.472;38.432;2022-08-21T06:01:45;93.15;;;59.35;;
74551;SDS011;63025;55.472;38.432;2022-08-21T06:04:11;91.68;;;60.05;;
74551;SDS011;63025;55.472;38.432;2022-08-21T06:06:37;93.85;;;57.70;;
74551;SDS011;63025;55.472;38.432;2022-08-21T06:09:03;90.93;;;56.92;;
74551;SDS011;63025;55.472;38.432;2022-08-21T06:11:30;76.20;;;51.50;;
74551;SDS011;63025;55.472;38.432;2022-08-21T06:13:57;79.10;;;51.15;;
74551;SDS011;63025;55.472;38.432;2022-08-21T06:16:24;76.20;;;48.25;;
74551;SDS011;63025;55.472;38.432;2022-08-21T06:18:51;77.15;;;48.60;;
74551;SDS011;63025;55.472;38.432;2022-08-21T06:21:16;74.80;;;47.97;;
74551;SDS011;63025;55.472;38.432;2022-08-21T06:23:43;76.22;;;47.22;;
74551;SDS011;63025;55.472;38.432;2022-08-21T06:26:09;66.75;;;42.00;;
74551;SDS011;63025;55.472;38.432;2022-08-21T06:28:37;68.05;;;42.83;;
74551;SDS011;63025;55.472;38.432;2022-08-21T06:31:12;70.53;;;43.95;;
74551;SDS011;63025;55.472;38.432;2022-08-21T06:33:41;65.70;;;42.65;;
74551;SDS011;63025;55.472;38.432;2022-08-21T06:36:07;69.32;;;42.83;;
74551;SDS011;63025;55.472;38.432;2022-08-21T06:38:33;61.08;;;40.30;;
74551;SDS011;63025;55.472;38.432;2022-08-21T06:40:59;61.47;;;39.05;;
74551;SDS011;63025;55.472;38.432;2022-08-21T06:43:25;60.95;;;40.30;;
74551;SDS011;63025;55.472;38.432;2022-08-21T06:45:51;58.60;;;37.90;;
74551;SDS011;63025;55.472;38.432;2022-08-21T06:48:17;54.38;;;37.00;;
74551;SDS011;63025;55.472;38.432;2022-08-21T06:50:42;56.10;;;36.80;;
74551;SDS011;63025;55.472;38.432;2022-08-21T06:53:09;53.78;;;36.42;;
74551;SDS011;63025;55.472;38.432;2022-08-21T06:55:37;63.45;;;38.60;;
74551;SDS011;63025;55.472;38.432;2022-08-21T06:58:03;60.50;;;36.30;;
74551;SDS011;63025;55.472;38.432;2022-08-21T07:00:31;54.45;;;33.92;;
74551;SDS011;63025;55.472;38.432;2022-08-21T07:02:57;53.67;;;32.42;;
74551;SDS011;63025;55.472;38.432;2022-08-21T07:05:26;54.17;;;34.03;;
74551;SDS011;63025;55.472;38.432;2022-08-21T07:07:54;48.47;;;32.17;;
74551;SDS011;63025;55.472;38.432;2022-08-21T07:10:20;51.80;;;34.60;;
74551;SDS011;63025;55.472;38.432;2022-08-21T07:12:47;53.42;;;35.35;;
74551;SDS011;63025;55.472;38.432;2022-08-21T07:15:13;54.17;;;36.88;;
74551;SDS011;63025;55.472;38.432;2022-08-21T07:17:38;56.75;;;36.97;;
74551;SDS011;63025;55.472;38.432;2022-08-21T07:20:04;55.45;;;36.50;;
74551;SDS011;63025;55.472;38.432;2022-08-21T07:22:31;56.63;;;36.50;;
74551;SDS011;63025;55.472;38.432;2022-08-21T07:24:57;56.72;;;36.97;;
74551;SDS011;63025;55.472;38.432;2022-08-21T07:27:23;51.35;;;34.50;;
74551;SDS011;63025;55.472;38.432;2022-08-21T07:29:49;51.53;;;33.58;;
74551;SDS011;63025;55.472;38.432;2022-08-21T07:32:15;53.38;;;34.30;;
74551;SDS011;63025;55.472;38.432;2022-08-21T07:34:41;49.63;;;31.83;;
74551;SDS011;63025;55.472;38.432;2022-08-21T07:37:07;50.35;;;33.20;;
74551;SDS011;63025;55.472;38.432;2022-08-21T07:39:33;53.85;;;32.50;;
74551;SDS011;63025;55.472;38.432;2022-08-21T07:41:58;50.75;;;32.42;;
74551;SDS011;63025;55.472;38.432;2022-08-21T07:44:24;48.55;;;33.25;;
74551;SDS011;63025;55.472;38.432;2022-08-21T07:46:50;50.20;;;34.03;;
74551;SDS011;63025;55.472;38.432;2022-08-21T07:49:15;54.35;;;33.20;;
74551;SDS011;63025;55.472;38.432;2022-08-21T07:51:41;56.53;;;32.60;;
74551;SDS011;63025;55.472;38.432;2022-08-21T07:54:07;49.45;;;29.00;;
74551;SDS011;63025;55.472;38.432;2022-08-21T07:56:33;46.58;;;28.58;;
74551;SDS011;63025;55.472;38.432;2022-08-21T07:58:59;42.05;;;27.13;;
74551;SDS011;63025;55.472;38.432;2022-08-21T08:01:27;46.42;;;28.65;;
74551;SDS011;63025;55.472;38.432;2022-08-21T08:03:54;46.33;;;27.48;;
74551;SDS011;63025;55.472;38.432;2022-08-21T08:06:20;41.88;;;27.60;;
74551;SDS011;63025;55.472;38.432;2022-08-21T08:08:46;43.80;;;26.67;;
74551;SDS011;63025;55.472;38.432;2022-08-21T08:11:12;40.75;;;26.98;;
74551;SDS011;63025;55.472;38.432;2022-08-21T08:13:41;41.15;;;27.60;;
74551;SDS011;63025;55.472;38.432;2022-08-21T08:16:09;39.25;;;26.52;;
74551;SDS011;63025;55.472;38.432;2022-08-21T08:18:35;37.03;;;24.95;;
74551;SDS011;63025;55.472;38.432;2022-08-21T08:21:02;42.60;;;25.52;;
74551;SDS011;63025;55.472;38.432;2022-08-21T08:23:28;39.78;;;23.92;;
74551;SDS011;63025;55.472;38.432;2022-08-21T08:25:56;34.30;;;21.98;;
74551;SDS011;63025;55.472;38.432;2022-08-21T08:28:22;32.90;;;21.42;;
74551;SDS011;63025;55.472;38.432;2022-08-21T08:30:47;29.52;;;18.70;;
74551;SDS011;63025;55.472;38.432;2022-08-21T08:33:15;28.45;;;18.45;;
74551;SDS011;63025;55.472;38.432;2022-08-21T08:35:42;32.15;;;18.63;;
74551;SDS011;63025;55.472;38.432;2022-08-21T08:38:11;33.72;;;18.35;;
74551;SDS011;63025;55.472;38.432;2022-08-21T08:40:39;29.08;;;18.27;;
74551;SDS011;63025;55.472;38.432;2022-08-21T08:43:28;27.48;;;18.50;;
74551;SDS011;63025;55.472;38.432;2022-08-21T08:45:56;33.58;;;17.23;;
74551;SDS011;63025;55.472;38.432;2022-08-21T08:48:31;25.65;;;16.33;;
74551;SDS011;63025;55.472;38.432;2022-08-21T08:51:02;22.75;;;15.98;;
74551;SDS011;63025;55.472;38.432;2022-08-21T08:53:32;23.60;;;16.10;;
74551;SDS011;63025;55.472;38.432;2022-08-21T08:56:01;26.70;;;16.67;;
74551;SDS011;63025;55.472;38.432;2022-08-21T08:58:30;29.13;;;17.98;;
74551;SDS011;63025;55.472;38.432;2022-08-21T09:01:00;31.80;;;18.77;;
74551;SDS011;63025;55.472;38.432;2022-08-21T09:03:28;33.20;;;20.23;;
74551;SDS011;63025;55.472;38.432;2022-08-21T09:06:18;30.50;;;21.27;;
74551;SDS011;63025;55.472;38.432;2022-08-21T09:28:37;29.23;;;21.10;;
74551;SDS011;63025;55.472;38.432;2022-08-21T09:31:23;29.95;;;19.80;;
74551;SDS011;63025;55.472;38.432;2022-08-21T09:34:05;31.73;;;19.40;;
74551;SDS011;63025;55.472;38.432;2022-08-21T09:36:42;29.60;;;19.02;;
74551;SDS011;63025;55.472;38.432;2022-08-21T09:39:11;26.88;;;17.35;;
74551;SDS011;63025;55.472;38.432;2022-08-21T09:41:39;28.60;;;16.05;;
74551;SDS011;63025;55.472;38.432;2022-08-21T09:44:06;28.23;;;18.70;;
74551;SDS011;63025;55.472;38.432;2022-08-21T09:46:34;30.05;;;18.60;;
74551;SDS011;63025;55.472;38.432;2022-08-21T09:49:02;26.10;;;17.02;;
74551;SDS011;63025;55.472;38.432;2022-08-21T09:51:30;31.67;;;17.50;;
74551;SDS011;63025;55.472;38.432;2022-08-21T09:56:34;29.05;;;17.45;;
74551;SDS011;63025;55.472;38.432;2022-08-21T09:59:25;29.25;;;19.50;;
74551;SDS011;63025;55.472;38.432;2022-08-21T10:01:57;33.63;;;21.75;;
74551;SDS011;63025;55.472;38.432;2022-08-21T10:04:30;34.42;;;20.35;;
74551;SDS011;63025;55.472;38.432;2022-08-21T10:07:09;36.60;;;22.27;;
74551;SDS011;63025;55.472;38.432;2022-08-21T10:09:36;36.95;;;22.23;;
74551;SDS011;63025;55.472;38.432;2022-08-21T10:17:26;26.42;;;17.35;;
74551;SDS011;63025;55.472;38.432;2022-08-21T10:25:21;28.33;;;18.30;;
74551;SDS011;63025;55.472;38.432;2022-08-21T10:31:00;29.00;;;16.45;;
74551;SDS011;63025;55.472;38.432;2022-08-21T10:33:46;25.13;;;15.80;;
74551;SDS011;63025;55.472;38.432;2022-08-21T10:39:35;27.58;;;15.38;;
74551;SDS011;63025;55.472;38.432;2022-08-21T10:47:37;23.30;;;15.00;;
74551;SDS011;63025;55.472;38.432;2022-08-21T10:50:18;27.33;;;15.63;;
74551;SDS011;63025;55.472;38.432;2022-08-21T10:55:48;24.85;;;15.32;;
74551;SDS011;63025;55.472;38.432;2022-08-21T11:01:21;24.13;;;17.00;;
74551;SDS011;63025;55.472;38.432;2022-08-21T11:04:07;27.15;;;16.90;;
74551;SDS011;63025;55.472;38.432;2022-08-21T11:06:59;27.17;;;17.38;;
74551;SDS011;63025;55.472;38.432;2022-08-21T11:09:29;29.05;;;17.52;;
74551;SDS011;63025;55.472;38.432;2022-08-21T11:12:03;28.08;;;17.98;;
74551;SDS011;63025;55.472;38.432;2022-08-21T11:14:54;41.05;;;25.10;;
74551;SDS011;63025;55.472;38.432;2022-08-21T11:17:31;52.03;;;29.33;;
74551;SDS011;63025;55.472;38.432;2022-08-21T11:20:19;30.83;;;19.77;;
74551;SDS011;63025;55.472;38.432;2022-08-21T11:23:05;29.48;;;17.23;;
74551;SDS011;63025;55.472;38.432;2022-08-21T11:25:37;27.02;;;18.10;;
74551;SDS011;63025;55.472;38.432;2022-08-21T11:28:10;45.53;;;29.15;;
74551;SDS011;63025;55.472;38.432;2022-08-21T11:31:06;30.85;;;18.45;;
74551;SDS011;63025;55.472;38.432;2022-08-21T11:36:55;30.85;;;18.90;;
74551;SDS011;63025;55.472;38.432;2022-08-21T11:39:29;31.38;;;17.65;;
74551;SDS011;63025;55.472;38.432;2022-08-21T11:42:22;25.95;;;17.40;;
74551;SDS011;63025;55.472;38.432;2022-08-21T11:50:23;31.35;;;19.13;;
74551;SDS011;63025;55.472;38.432;2022-08-21T11:52:57;31.88;;;21.05;;
74551;SDS011;63025;55.472;38.432;2022-08-21T11:58:06;36.53;;;25.40;;
74551;SDS011;63025;55.472;38.432;2022-08-21T12:00:47;35.50;;;25.70;;
74551;SDS011;63025;55.472;38.432;2022-08-21T12:03:36;39.20;;;26.50;;
74551;SDS011;63025;55.472;38.432;2022-08-21T12:06:12;36.42;;;24.73;;
74551;SDS011;63025;55.472;38.432;2022-08-21T12:14:20;38.80;;;25.45;;
74551;SDS011;63025;55.472;38.432;2022-08-21T12:16:42;39.53;;;25.63;;
74551;SDS011;63025;55.472;38.432;2022-08-21T12:26:53;41.42;;;28.75;;
74551;SDS011;63025;55.472;38.432;2022-08-21T12:29:26;48.17;;;35.97;;
74551;SDS011;63025;55.472;38.432;2022-08-21T12:34:40;57.47;;;39.47;;
74551;SDS011;63025;55.472;38.432;2022-08-21T12:39:57;40.75;;;32.10;;
74551;SDS011;63025;55.472;38.432;2022-08-21T12:42:38;55.75;;;42.03;;
74551;SDS011;63025;55.472;38.432;2022-08-21T12:48:16;55.42;;;43.67;;
74551;SDS011;63025;55.472;38.432;2022-08-21T12:50:49;55.65;;;41.05;;
74551;SDS011;63025;55.472;38.432;2022-08-21T12:55:54;44.55;;;34.63;;
74551;SDS011;63025;55.472;38.432;2022-08-21T12:58:25;40.97;;;29.67;;
74551;SDS011;63025;55.472;38.432;2022-08-21T13:01:04;34.80;;;25.75;;
74551;SDS011;63025;55.472;38.432;2022-08-21T13:03:36;37.38;;;27.40;;
74551;SDS011;63025;55.472;38.432;2022-08-21T13:06:03;31.88;;;23.48;;
74551;SDS011;63025;55.472;38.432;2022-08-21T13:08:30;29.25;;;19.20;;
74551;SDS011;63025;55.472;38.432;2022-08-21T13:11:02;22.27;;;15.38;;
74551;SDS011;63025;55.472;38.432;2022-08-21T13:13:30;26.23;;;16.23;;
74551;SDS011;63025;55.472;38.432;2022-08-21T13:15:57;25.02;;;16.65;;
74551;SDS011;63025;55.472;38.432;2022-08-21T13:18:28;25.88;;;15.45;;
74551;SDS011;63025;55.472;38.432;2022-08-21T13:21:29;19.05;;;12.32;;
74551;SDS011;63025;55.472;38.432;2022-08-21T13:23:53;17.40;;;12.32;;
74551;SDS011;63025;55.472;38.432;2022-08-21T13:26:20;16.85;;;8.30;;
74551;SDS011;63025;55.472;38.432;2022-08-21T13:28:46;11.82;;;6.10;;
74551;SDS011;63025;55.472;38.432;2022-08-21T13:31:17;10.32;;;4.90;;
74551;SDS011;63025;55.472;38.432;2022-08-21T17:14:19;24.85;;;15.23;;
74551;SDS011;63025;55.472;38.432;2022-08-21T17:16:49;23.08;;;15.30;;
74551;SDS011;63025;55.472;38.432;2022-08-21T17:19:17;28.42;;;15.15;;
74551;SDS011;63025;55.472;38.432;2022-08-21T17:21:43;33.50;;;18.73;;
74551;SDS011;63025;55.472;38.432;2022-08-21T17:24:09;26.50;;;15.10;;
74551;SDS011;63025;55.472;38.432;2022-08-21T17:26:40;30.50;;;15.48;;
74551;SDS011;63025;55.472;38.432;2022-08-21T17:29:07;27.27;;;15.55;;
74551;SDS011;63025;55.472;38.432;2022-08-21T17:31:37;25.27;;;15.48;;
74551;SDS011;63025;55.472;38.432;2022-08-21T17:34:05;35.42;;;20.80;;
74551;SDS011;63025;55.472;38.432;2022-08-21T17:36:31;45.97;;;24.13;;
74551;SDS011;63025;55.472;38.432;2022-08-21T17:38:57;38.22;;;19.77;;
74551;SDS011;63025;55.472;38.432;2022-08-21T17:41:24;32.85;;;20.55;;
74551;SDS011;63025;55.472;38.432;2022-08-21T17:43:50;45.70;;;25.55;;
74551;SDS011;63025;55.472;38.432;2022-08-21T17:46:20;50.58;;;27.88;;
74551;SDS011;63025;55.472;38.432;2022-08-21T17:48:47;39.47;;;23.38;;
74551;SDS011;63025;55.472;38.432;2022-08-21T17:51:13;34.55;;;20.88;;
74551;SDS011;63025;55.472;38.432;2022-08-21T17:53:40;30.67;;;19.13;;
74551;SDS011;63025;55.472;38.432;2022-08-21T17:56:07;34.83;;;18.63;;
74551;SDS011;63025;55.472;38.432;2022-08-21T17:58:33;33.08;;;17.92;;
74551;SDS011;63025;55.472;38.432;2022-08-21T18:01:00;35.45;;;17.77;;
74551;SDS011;63025;55.472;38.432;2022-08-21T18:03:30;28.08;;;17.63;;
74551;SDS011;63025;55.472;38.432;2022-08-21T18:05:57;27.67;;;17.73;;
74551;SDS011;63025;55.472;38.432;2022-08-21T18:08:23;29.63;;;18.65;;
74551;SDS011;63025;55.472;38.432;2022-08-21T18:10:50;33.25;;;18.13;;
74551;SDS011;63025;55.472;38.432;2022-08-21T18:13:19;29.55;;;18.52;;
74551;SDS011;63025;55.472;38.432;2022-08-21T18:15:49;35.65;;;20.67;;
74551;SDS011;63025;55.472;38.432;2022-08-21T18:18:16;37.75;;;20.73;;
74551;SDS011;63025;55.472;38.432;2022-08-21T18:20:43;27.92;;;18.38;;
74551;SDS011;63025;55.472;38.432;2022-08-21T18:23:09;27.25;;;18.45;;
74551;SDS011;63025;55.472;38.432;2022-08-21T18:25:35;33.53;;;19.70;;
74551;SDS011;63025;55.472;38.432;2022-08-21T18:28:01;29.70;;;18.63;;
74551;SDS011;63025;55.472;38.432;2022-08-21T18:30:31;32.42;;;20.25;;
74551;SDS011;63025;55.472;38.432;2022-08-21T18:33:01;30.73;;;18.05;;
74551;SDS011;63025;55.472;38.432;2022-08-21T18:35:27;26.85;;;17.80;;
74551;SDS011;63025;55.472;38.432;2022-08-21T18:37:53;30.33;;;18.38;;
74551;SDS011;63025;55.472;38.432;2022-08-21T18:40:19;32.40;;;18.27;;
74551;SDS011;63025;55.472;38.432;2022-08-21T18:42:46;26.73;;;17.58;;
74551;SDS011;63025;55.472;38.432;2022-08-21T18:45:14;29.60;;;16.92;;
74551;SDS011;63025;55.472;38.432;2022-08-21T18:47:49;25.48;;;16.73;;
74551;SDS011;63025;55.472;38.432;2022-08-21T18:50:18;31.05;;;17.38;;
74551;SDS011;63025;55.472;38.432;2022-08-21T18:52:46;25.63;;;16.23;;
74551;SDS011;63025;55.472;38.432;2022-08-21T18:55:13;28.48;;;17.63;;
74551;SDS011;63025;55.472;38.432;2022-08-21T18:57:40;27.33;;;17.45;;
74551;SDS011;63025;55.472;38.432;2022-08-21T19:00:12;25.13;;;16.40;;
74551;SDS011;63025;55.472;38.432;2022-08-21T19:02:42;32.22;;;17.08;;
74551;SDS011;63025;55.472;38.432;2022-08-21T19:05:09;29.02;;;16.50;;
74551;SDS011;63025;55.472;38.432;2022-08-21T19:07:36;24.33;;;16.85;;
74551;SDS011;63025;55.472;38.432;2022-08-21T19:10:06;26.02;;;16.70;;
74551;SDS011;63025;55.472;38.432;2022-08-21T19:12:34;26.40;;;15.95;;
74551;SDS011;63025;55.472;38.432;2022-08-21T19:15:02;27.67;;;16.50;;
74551;SDS011;63025;55.472;38.432;2022-08-21T19:17:30;28.25;;;15.48;;
74551;SDS011;63025;55.472;38.432;2022-08-21T19:19:57;22.80;;;14.73;;
74551;SDS011;63025;55.472;38.432;2022-08-21T19:22:30;23.63;;;15.27;;
74551;SDS011;63025;55.472;38.432;2022-08-21T19:24:56;22.08;;;15.02;;